sensor_id;sensor_type;location;lat;lon;timestamp;pressure;altitude;pressure_sealevel;temperature
78225;BMP280;67498;53.650;10.090;2023-07-13T00:01:14;101170.28;;;16.27
78225;BMP280;67498;53.650;10.090;2023-07-13T00:03:40;101159.63;;;16.17
78225;BMP280;67498;53.650;10.090;2023-07-13T00:06:07;101163.88;;;16.15
78225;BMP280;67498;53.650;10.090;2023-07-13T00:08:32;101163.34;;;16.07
78225;BMP280;67498;53.650;10.090;2023-07-13T00:10:58;101163.88;;;16.02
78225;BMP280;67498;53.650;10.090;2023-07-13T00:13:23;101167.38;;;15.99
78225;BMP280;67498;53.650;10.090;2023-07-13T00:15:49;101163.88;;;15.89
78225;BMP280;67498;53.650;10.090;2023-07-13T00:18:14;101162.41;;;15.88
78225;BMP280;67498;53.650;10.090;2023-07-13T00:20:39;101162.91;;;15.83
78225;BMP280;67498;53.650;10.090;2023-07-13T00:23:06;101159.34;;;15.77
78225;BMP280;67498;53.650;10.090;2023-07-13T00:25:32;101154.50;;;15.76
78225;BMP280;67498;53.650;10.090;2023-07-13T00:27:57;101153.88;;;15.72
78225;BMP280;67498;53.650;10.090;2023-07-13T00:30:22;101155.22;;;15.63
78225;BMP280;67498;53.650;10.090;2023-07-13T00:32:48;101158.25;;;15.62
78225;BMP280;67498;53.650;10.090;2023-07-13T00:35:14;101160.16;;;15.61
78225;BMP280;67498;53.650;10.090;2023-07-13T00:37:39;101151.97;;;15.59
78225;BMP280;67498;53.650;10.090;2023-07-13T00:40:05;101152.16;;;15.52
78225;BMP280;67498;53.650;10.090;2023-07-13T00:42:31;101156.69;;;15.52
78225;BMP280;67498;53.650;10.090;2023-07-13T00:47:30;101163.19;;;15.47
78225;BMP280;67498;53.650;10.090;2023-07-13T00:49:55;101170.44;;;15.43
78225;BMP280;67498;53.650;10.090;2023-07-13T00:52:21;101156.34;;;15.37
78225;BMP280;67498;53.650;10.090;2023-07-13T00:54:46;101169.50;;;15.37
78225;BMP280;67498;53.650;10.090;2023-07-13T00:57:17;101160.97;;;15.33
78225;BMP280;67498;53.650;10.090;2023-07-13T00:59:47;101153.25;;;15.26
78225;BMP280;67498;53.650;10.090;2023-07-13T01:02:14;101159.25;;;15.26
78225;BMP280;67498;53.650;10.090;2023-07-13T01:04:39;101163.38;;;15.27
78225;BMP280;67498;53.650;10.090;2023-07-13T01:07:06;101159.66;;;15.25
78225;BMP280;67498;53.650;10.090;2023-07-13T01:09:32;101160.06;;;15.23
78225;BMP280;67498;53.650;10.090;2023-07-13T01:11:57;101160.47;;;15.22
78225;BMP280;67498;53.650;10.090;2023-07-13T01:14:24;101154.69;;;15.14
78225;BMP280;67498;53.650;10.090;2023-07-13T01:16:50;101150.25;;;15.11
78225;BMP280;67498;53.650;10.090;2023-07-13T01:22:05;101150.75;;;15.06
78225;BMP280;67498;53.650;10.090;2023-07-13T01:24:35;101152.63;;;15.05
78225;BMP280;67498;53.650;10.090;2023-07-13T01:27:02;101150.47;;;15.04
78225;BMP280;67498;53.650;10.090;2023-07-13T01:29:27;101146.31;;;15.03
78225;BMP280;67498;53.650;10.090;2023-07-13T01:31:52;101160.13;;;15.07
78225;BMP280;67498;53.650;10.090;2023-07-13T01:34:18;101164.66;;;15.06
78225;BMP280;67498;53.650;10.090;2023-07-13T01:36:43;101161.75;;;15.01
78225;BMP280;67498;53.650;10.090;2023-07-13T01:39:08;101166.53;;;15.06
78225;BMP280;67498;53.650;10.090;2023-07-13T01:41:33;101153.16;;;15.00
78225;BMP280;67498;53.650;10.090;2023-07-13T01:43:59;101166.47;;;15.09
78225;BMP280;67498;53.650;10.090;2023-07-13T01:46:24;101157.38;;;15.10
78225;BMP280;67498;53.650;10.090;2023-07-13T01:48:50;101159.94;;;15.14
78225;BMP280;67498;53.650;10.090;2023-07-13T01:51:17;101159.56;;;15.15
78225;BMP280;67498;53.650;10.090;2023-07-13T01:53:43;101159.22;;;15.13
78225;BMP280;67498;53.650;10.090;2023-07-13T01:56:08;101162.19;;;15.15
78225;BMP280;67498;53.650;10.090;2023-07-13T01:58:33;101161.72;;;15.17
78225;BMP280;67498;53.650;10.090;2023-07-13T02:00:59;101148.34;;;15.11
78225;BMP280;67498;53.650;10.090;2023-07-13T02:03:24;101160.25;;;15.16
78225;BMP280;67498;53.650;10.090;2023-07-13T02:05:49;101141.19;;;15.12
78225;BMP280;67498;53.650;10.090;2023-07-13T02:08:14;101153.84;;;15.17
78225;BMP280;67498;53.650;10.090;2023-07-13T02:10:40;101146.47;;;15.12
78225;BMP280;67498;53.650;10.090;2023-07-13T02:13:06;101157.63;;;15.16
78225;BMP280;67498;53.650;10.090;2023-07-13T02:15:31;101156.47;;;15.17
78225;BMP280;67498;53.650;10.090;2023-07-13T02:17:56;101152.44;;;15.12
78225;BMP280;67498;53.650;10.090;2023-07-13T02:20:24;101144.34;;;15.07
78225;BMP280;67498;53.650;10.090;2023-07-13T02:22:49;101159.22;;;15.13
78225;BMP280;67498;53.650;10.090;2023-07-13T02:25:14;101168.25;;;15.12
78225;BMP280;67498;53.650;10.090;2023-07-13T02:27:40;101158.22;;;15.07
78225;BMP280;67498;53.650;10.090;2023-07-13T02:30:05;101157.84;;;15.09
78225;BMP280;67498;53.650;10.090;2023-07-13T02:32:31;101167.84;;;15.14
78225;BMP280;67498;53.650;10.090;2023-07-13T02:34:57;101170.06;;;15.15
78225;BMP280;67498;53.650;10.090;2023-07-13T02:37:22;101165.94;;;15.14
78225;BMP280;67498;53.650;10.090;2023-07-13T02:39:47;101165.22;;;15.14
78225;BMP280;67498;53.650;10.090;2023-07-13T02:42:13;101158.47;;;15.13
78225;BMP280;67498;53.650;10.090;2023-07-13T02:44:38;101161.19;;;15.09
78225;BMP280;67498;53.650;10.090;2023-07-13T02:47:03;101159.22;;;15.13
78225;BMP280;67498;53.650;10.090;2023-07-13T02:49:29;101158.47;;;15.13
78225;BMP280;67498;53.650;10.090;2023-07-13T02:51:54;101162.97;;;15.12
78225;BMP280;67498;53.650;10.090;2023-07-13T02:54:19;101158.88;;;15.11
78225;BMP280;67498;53.650;10.090;2023-07-13T02:56:44;101155.19;;;15.09
78225;BMP280;67498;53.650;10.090;2023-07-13T02:59:10;101161.84;;;15.13
78225;BMP280;67498;53.650;10.090;2023-07-13T03:01:36;101167.09;;;15.13
78225;BMP280;67498;53.650;10.090;2023-07-13T03:04:02;101163.75;;;15.13
78225;BMP280;67498;53.650;10.090;2023-07-13T03:06:28;101161.91;;;15.10
78225;BMP280;67498;53.650;10.090;2023-07-13T03:08:55;101168.25;;;15.12
78225;BMP280;67498;53.650;10.090;2023-07-13T03:11:21;101167.09;;;15.13
78225;BMP280;67498;53.650;10.090;2023-07-13T03:13:46;101167.50;;;15.12
78225;BMP280;67498;53.650;10.090;2023-07-13T03:16:12;101151.06;;;15.08
78225;BMP280;67498;53.650;10.090;2023-07-13T03:18:40;101149.94;;;15.09
78225;BMP280;67498;53.650;10.090;2023-07-13T03:21:06;101161.84;;;15.13
78225;BMP280;67498;53.650;10.090;2023-07-13T03:23:31;101160.34;;;15.12
78225;BMP280;67498;53.650;10.090;2023-07-13T03:26:09;101152.56;;;15.09
78225;BMP280;67498;53.650;10.090;2023-07-13T03:28:35;101156.97;;;15.12
78225;BMP280;67498;53.650;10.090;2023-07-13T03:31:06;101149.94;;;15.09
78225;BMP280;67498;53.650;10.090;2023-07-13T03:33:31;101166.69;;;15.15
78225;BMP280;67498;53.650;10.090;2023-07-13T03:35:57;101149.94;;;15.09
78225;BMP280;67498;53.650;10.090;2023-07-13T03:38:22;101158.78;;;15.15
78225;BMP280;67498;53.650;10.090;2023-07-13T03:40:48;101155.41;;;15.14
78225;BMP280;67498;53.650;10.090;2023-07-13T03:43:14;101159.94;;;15.14
78225;BMP280;67498;53.650;10.090;2023-07-13T03:45:39;101160.25;;;15.16
78225;BMP280;67498;53.650;10.090;2023-07-13T03:48:04;101155.00;;;15.16
78225;BMP280;67498;53.650;10.090;2023-07-13T03:50:30;101148.25;;;15.15
78225;BMP280;67498;53.650;10.090;2023-07-13T03:52:57;101149.81;;;15.12
78225;BMP280;67498;53.650;10.090;2023-07-13T03:55:22;101154.28;;;15.15
78225;BMP280;67498;53.650;10.090;2023-07-13T04:00:36;101159.94;;;15.14
78225;BMP280;67498;53.650;10.090;2023-07-13T04:03:01;101170.47;;;15.14
78225;BMP280;67498;53.650;10.090;2023-07-13T04:05:26;101174.25;;;15.13
78225;BMP280;67498;53.650;10.090;2023-07-13T04:07:52;101161.59;;;15.08
78225;BMP280;67498;53.650;10.090;2023-07-13T04:10:18;101160.47;;;15.09
78225;BMP280;67498;53.650;10.090;2023-07-13T04:12:43;101165.25;;;15.10
78225;BMP280;67498;53.650;10.090;2023-07-13T04:15:08;101164.13;;;15.11
78225;BMP280;67498;53.650;10.090;2023-07-13T04:17:34;101168.66;;;15.11
78225;BMP280;67498;53.650;10.090;2023-07-13T04:19:59;101160.69;;;15.14
78225;BMP280;67498;53.650;10.090;2023-07-13T04:22:24;101176.25;;;15.22
78225;BMP280;67498;53.650;10.090;2023-07-13T04:24:49;101181.13;;;15.23
78225;BMP280;67498;53.650;10.090;2023-07-13T04:27:15;101161.72;;;15.17
78225;BMP280;67498;53.650;10.090;2023-07-13T04:29:40;101160.69;;;15.14
78225;BMP280;67498;53.650;10.090;2023-07-13T04:32:05;101172.81;;;15.25
78225;BMP280;67498;53.650;10.090;2023-07-13T04:34:31;101162.78;;;15.20
78225;BMP280;67498;53.650;10.090;2023-07-13T04:36:56;101157.53;;;15.20
78225;BMP280;67498;53.650;10.090;2023-07-13T04:39:21;101166.19;;;15.20
78225;BMP280;67498;53.650;10.090;2023-07-13T04:41:47;101167.53;;;15.25
78225;BMP280;67498;53.650;10.090;2023-07-13T04:44:12;101164.59;;;15.23
78225;BMP280;67498;53.650;10.090;2023-07-13T04:46:37;101167.06;;;15.30
78225;BMP280;67498;53.650;10.090;2023-07-13T04:49:03;101170.31;;;15.34
78225;BMP280;67498;53.650;10.090;2023-07-13T04:51:29;101172.13;;;15.37
78225;BMP280;67498;53.650;10.090;2023-07-13T04:53:54;101166.75;;;15.40
78225;BMP280;67498;53.650;10.090;2023-07-13T04:56:20;101171.81;;;15.48
78225;BMP280;67498;53.650;10.090;2023-07-13T04:58:45;101173.41;;;15.58
78225;BMP280;67498;53.650;10.090;2023-07-13T05:01:11;101171.84;;;15.60
78225;BMP280;67498;53.650;10.090;2023-07-13T05:03:36;101180.63;;;15.70
78225;BMP280;67498;53.650;10.090;2023-07-13T05:06:05;101180.41;;;15.77
78225;BMP280;67498;53.650;10.090;2023-07-13T05:08:31;101185.44;;;15.84
78225;BMP280;67498;53.650;10.090;2023-07-13T05:10:59;101196.88;;;15.94
78225;BMP280;67498;53.650;10.090;2023-07-13T05:13:25;101194.44;;;16.00
78225;BMP280;67498;53.650;10.090;2023-07-13T05:16:03;101196.66;;;16.14
78225;BMP280;67498;53.650;10.090;2023-07-13T05:18:29;101192.75;;;16.19
78225;BMP280;67498;53.650;10.090;2023-07-13T05:23:24;101202.41;;;16.95
78225;BMP280;67498;53.650;10.090;2023-07-13T05:25:49;101210.25;;;18.50
78225;BMP280;67498;53.650;10.090;2023-07-13T05:28:15;101195.50;;;19.98
78225;BMP280;67498;53.650;10.090;2023-07-13T05:30:45;101208.72;;;21.20
78225;BMP280;67498;53.650;10.090;2023-07-13T05:33:10;101208.19;;;21.86
78225;BMP280;67498;53.650;10.090;2023-07-13T05:35:36;101220.34;;;22.33
78225;BMP280;67498;53.650;10.090;2023-07-13T05:38:01;101216.22;;;22.12
78225;BMP280;67498;53.650;10.090;2023-07-13T05:40:26;101220.00;;;21.85
78225;BMP280;67498;53.650;10.090;2023-07-13T05:42:51;101218.34;;;22.28
78225;BMP280;67498;53.650;10.090;2023-07-13T05:45:16;101221.41;;;22.01
78225;BMP280;67498;53.650;10.090;2023-07-13T05:47:42;101228.06;;;21.20
78225;BMP280;67498;53.650;10.090;2023-07-13T05:50:07;101225.88;;;20.36
78225;BMP280;67498;53.650;10.090;2023-07-13T05:52:33;101216.38;;;19.72
78225;BMP280;67498;53.650;10.090;2023-07-13T05:54:58;101215.81;;;19.26
78225;BMP280;67498;53.650;10.090;2023-07-13T05:57:23;101210.13;;;18.90
78225;BMP280;67498;53.650;10.090;2023-07-13T05:59:48;101223.34;;;18.72
78225;BMP280;67498;53.650;10.090;2023-07-13T06:02:14;101229.81;;;18.53
78225;BMP280;67498;53.650;10.090;2023-07-13T06:04:39;101229.06;;;18.34
78225;BMP280;67498;53.650;10.090;2023-07-13T06:07:04;101231.94;;;18.17
78225;BMP280;67498;53.650;10.090;2023-07-13T06:09:29;101236.91;;;18.06
78225;BMP280;67498;53.650;10.090;2023-07-13T06:11:55;101242.19;;;18.06
78225;BMP280;67498;53.650;10.090;2023-07-13T06:14:20;101242.47;;;17.99
78225;BMP280;67498;53.650;10.090;2023-07-13T06:16:45;101245.53;;;17.98
78225;BMP280;67498;53.650;10.090;2023-07-13T06:19:10;101243.03;;;17.94
78225;BMP280;67498;53.650;10.090;2023-07-13T06:21:36;101231.84;;;17.81
78225;BMP280;67498;53.650;10.090;2023-07-13T06:24:01;101233.53;;;17.75
78225;BMP280;67498;53.650;10.090;2023-07-13T06:26:27;101247.19;;;17.73
78225;BMP280;67498;53.650;10.090;2023-07-13T06:28:53;101251.72;;;17.73
78225;BMP280;67498;53.650;10.090;2023-07-13T06:31:18;101236.34;;;17.71
78225;BMP280;67498;53.650;10.090;2023-07-13T06:33:44;101235.28;;;17.68
78225;BMP280;67498;53.650;10.090;2023-07-13T06:36:10;101237.38;;;17.74
78225;BMP280;67498;53.650;10.090;2023-07-13T06:38:35;101232.69;;;17.78
78225;BMP280;67498;53.650;10.090;2023-07-13T06:41:01;101240.38;;;17.85
78225;BMP280;67498;53.650;10.090;2023-07-13T06:43:26;101251.97;;;17.87
78225;BMP280;67498;53.650;10.090;2023-07-13T06:45:55;101241.09;;;17.85
78225;BMP280;67498;53.650;10.090;2023-07-13T06:48:20;101251.72;;;17.95
78225;BMP280;67498;53.650;10.090;2023-07-13T06:50:47;101247.44;;;17.97
78225;BMP280;67498;53.650;10.090;2023-07-13T06:53:13;101252.47;;;18.04
78225;BMP280;67498;53.650;10.090;2023-07-13T06:55:38;101244.28;;;18.11
78225;BMP280;67498;53.650;10.090;2023-07-13T06:58:04;101250.16;;;18.25
78225;BMP280;67498;53.650;10.090;2023-07-13T07:00:29;101244.28;;;18.30
78225;BMP280;67498;53.650;10.090;2023-07-13T07:02:55;101245.81;;;18.40
78225;BMP280;67498;53.650;10.090;2023-07-13T07:05:20;101246.69;;;18.46
78225;BMP280;67498;53.650;10.090;2023-07-13T07:07:47;101251.84;;;18.50
78225;BMP280;67498;53.650;10.090;2023-07-13T07:10:13;101255.66;;;18.49
78225;BMP280;67498;53.650;10.090;2023-07-13T07:12:38;101259.34;;;18.60
78225;BMP280;67498;53.650;10.090;2023-07-13T07:15:04;101260.69;;;18.74
78225;BMP280;67498;53.650;10.090;2023-07-13T07:17:29;101262.44;;;18.95
78225;BMP280;67498;53.650;10.090;2023-07-13T07:19:54;101253.91;;;19.10
78225;BMP280;67498;53.650;10.090;2023-07-13T07:22:20;101254.34;;;19.27
78225;BMP280;67498;53.650;10.090;2023-07-13T07:24:46;101264.13;;;19.54
78225;BMP280;67498;53.650;10.090;2023-07-13T07:27:11;101254.78;;;19.77
78225;BMP280;67498;53.650;10.090;2023-07-13T07:29:36;101268.97;;;20.07
78225;BMP280;67498;53.650;10.090;2023-07-13T07:32:02;101257.59;;;20.30
78225;BMP280;67498;53.650;10.090;2023-07-13T07:34:27;101255.75;;;20.60
78225;BMP280;67498;53.650;10.090;2023-07-13T07:36:54;101261.31;;;20.71
78225;BMP280;67498;53.650;10.090;2023-07-13T07:39:19;101267.31;;;20.72
78225;BMP280;67498;53.650;10.090;2023-07-13T07:41:44;101271.06;;;20.80
78225;BMP280;67498;53.650;10.090;2023-07-13T07:44:09;101264.31;;;20.94
78225;BMP280;67498;53.650;10.090;2023-07-13T07:46:35;101268.00;;;21.11
78225;BMP280;67498;53.650;10.090;2023-07-13T07:49:00;101264.88;;;21.27
78225;BMP280;67498;53.650;10.090;2023-07-13T07:51:26;101261.47;;;21.27
78225;BMP280;67498;53.650;10.090;2023-07-13T07:53:51;101274.78;;;21.42
78225;BMP280;67498;53.650;10.090;2023-07-13T07:56:16;101267.88;;;21.35
78225;BMP280;67498;53.650;10.090;2023-07-13T07:58:42;101270.00;;;21.31
78225;BMP280;67498;53.650;10.090;2023-07-13T08:01:08;101265.59;;;21.28
78225;BMP280;67498;53.650;10.090;2023-07-13T08:03:33;101272.41;;;21.14
78225;BMP280;67498;53.650;10.090;2023-07-13T08:05:59;101260.03;;;21.26
78225;BMP280;67498;53.650;10.090;2023-07-13T08:08:24;101254.22;;;21.42
78225;BMP280;67498;53.650;10.090;2023-07-13T08:10:49;101262.72;;;21.46
78225;BMP280;67498;53.650;10.090;2023-07-13T08:13:15;101272.38;;;21.44
78225;BMP280;67498;53.650;10.090;2023-07-13T08:15:40;101261.22;;;21.25
78225;BMP280;67498;53.650;10.090;2023-07-13T08:18:06;101251.25;;;21.20
78225;BMP280;67498;53.650;10.090;2023-07-13T08:20:32;101258.66;;;21.30
78225;BMP280;67498;53.650;10.090;2023-07-13T08:22:57;101265.88;;;21.30
78225;BMP280;67498;53.650;10.090;2023-07-13T08:25:23;101263.84;;;21.40
78225;BMP280;67498;53.650;10.090;2023-07-13T08:27:48;101261.31;;;21.45
78225;BMP280;67498;53.650;10.090;2023-07-13T08:30:13;101263.13;;;21.39
78225;BMP280;67498;53.650;10.090;2023-07-13T08:32:39;101258.09;;;21.41
78225;BMP280;67498;53.650;10.090;2023-07-13T08:35:05;101258.53;;;21.54
78225;BMP280;67498;53.650;10.090;2023-07-13T08:37:30;101267.69;;;21.53
78225;BMP280;67498;53.650;10.090;2023-07-13T08:39:55;101273.88;;;21.45
78225;BMP280;67498;53.650;10.090;2023-07-13T08:47:54;101263.59;;;21.23
78225;BMP280;67498;53.650;10.090;2023-07-13T08:50:24;101270.31;;;21.33
78225;BMP280;67498;53.650;10.090;2023-07-13T08:52:51;101268.28;;;21.63
78225;BMP280;67498;53.650;10.090;2023-07-13T08:55:21;101276.44;;;21.95
78225;BMP280;67498;53.650;10.090;2023-07-13T08:57:54;101262.84;;;22.28
78225;BMP280;67498;53.650;10.090;2023-07-13T09:00:22;101267.00;;;22.34
78225;BMP280;67498;53.650;10.090;2023-07-13T09:02:57;101267.16;;;22.25
78225;BMP280;67498;53.650;10.090;2023-07-13T09:05:28;101270.22;;;22.18
78225;BMP280;67498;53.650;10.090;2023-07-13T09:08:08;101263.56;;;22.08
78225;BMP280;67498;53.650;10.090;2023-07-13T09:10:45;101261.13;;;22.04
78225;BMP280;67498;53.650;10.090;2023-07-13T09:15:51;101264.63;;;22.16
78225;BMP280;67498;53.650;10.090;2023-07-13T09:18:25;101276.41;;;22.30
78225;BMP280;67498;53.650;10.090;2023-07-13T09:23:28;101257.09;;;22.35
78225;BMP280;67498;53.650;10.090;2023-07-13T09:26:01;101266.03;;;22.32
78225;BMP280;67498;53.650;10.090;2023-07-13T09:28:29;101262.97;;;22.19
78225;BMP280;67498;53.650;10.090;2023-07-13T09:31:04;101271.69;;;22.19
78225;BMP280;67498;53.650;10.090;2023-07-13T09:33:31;101261.84;;;22.25
78225;BMP280;67498;53.650;10.090;2023-07-13T09:36:00;101272.47;;;22.46
78225;BMP280;67498;53.650;10.090;2023-07-13T09:38:28;101263.34;;;22.78
78225;BMP280;67498;53.650;10.090;2023-07-13T09:44:01;101263.03;;;23.28
78225;BMP280;67498;53.650;10.090;2023-07-13T09:46:27;101255.81;;;23.40
78225;BMP280;67498;53.650;10.090;2023-07-13T09:48:52;101270.19;;;23.54
78225;BMP280;67498;53.650;10.090;2023-07-13T09:51:17;101263.16;;;23.51
78225;BMP280;67498;53.650;10.090;2023-07-13T09:53:43;101260.56;;;23.67
78225;BMP280;67498;53.650;10.090;2023-07-13T09:56:28;101266.75;;;23.90
78225;BMP280;67498;53.650;10.090;2023-07-13T09:58:55;101279.84;;;23.88
78225;BMP280;67498;53.650;10.090;2023-07-13T10:01:38;101278.97;;;23.65
78225;BMP280;67498;53.650;10.090;2023-07-13T10:04:14;101276.00;;;23.52
78225;BMP280;67498;53.650;10.090;2023-07-13T10:06:41;101278.34;;;23.44
78225;BMP280;67498;53.650;10.090;2023-07-13T10:09:08;101270.66;;;23.52
78225;BMP280;67498;53.650;10.090;2023-07-13T10:11:35;101268.75;;;23.58
78225;BMP280;67498;53.650;10.090;2023-07-13T10:14:15;101273.38;;;23.58
78225;BMP280;67498;53.650;10.090;2023-07-13T10:16:43;101274.03;;;23.47
78225;BMP280;67498;53.650;10.090;2023-07-13T10:19:24;101256.19;;;23.21
78225;BMP280;67498;53.650;10.090;2023-07-13T10:21:59;101269.44;;;23.10
78225;BMP280;67498;53.650;10.090;2023-07-13T10:24:27;101260.47;;;22.82
78225;BMP280;67498;53.650;10.090;2023-07-13T10:27:12;101261.75;;;22.60
78225;BMP280;67498;53.650;10.090;2023-07-13T10:29:45;101251.88;;;22.66
78225;BMP280;67498;53.650;10.090;2023-07-13T10:32:12;101257.00;;;23.02
78225;BMP280;67498;53.650;10.090;2023-07-13T10:34:39;101256.34;;;23.12
78225;BMP280;67498;53.650;10.090;2023-07-13T10:37:05;101262.84;;;23.06
78225;BMP280;67498;53.650;10.090;2023-07-13T10:39:34;101266.97;;;23.07
78225;BMP280;67498;53.650;10.090;2023-07-13T10:42:04;101271.25;;;23.30
78225;BMP280;67498;53.650;10.090;2023-07-13T10:44:31;101255.16;;;23.51
78225;BMP280;67498;53.650;10.090;2023-07-13T10:47:06;101261.91;;;23.46
78225;BMP280;67498;53.650;10.090;2023-07-13T10:49:34;101259.31;;;23.26
78225;BMP280;67498;53.650;10.090;2023-07-13T10:52:01;101262.50;;;23.30
78225;BMP280;67498;53.650;10.090;2023-07-13T10:57:07;101263.22;;;23.62
78225;BMP280;67498;53.650;10.090;2023-07-13T10:59:33;101263.03;;;23.82
78225;BMP280;67498;53.650;10.090;2023-07-13T11:04:29;101261.28;;;23.62
78225;BMP280;67498;53.650;10.090;2023-07-13T11:06:59;101268.78;;;23.64
78225;BMP280;67498;53.650;10.090;2023-07-13T11:09:39;101269.84;;;23.77
78225;BMP280;67498;53.650;10.090;2023-07-13T11:12:25;101267.72;;;23.98
78225;BMP280;67498;53.650;10.090;2023-07-13T11:17:50;101268.38;;;23.82
78225;BMP280;67498;53.650;10.090;2023-07-13T11:27:46;101258.31;;;24.14
78225;BMP280;67498;53.650;10.090;2023-07-13T11:35:35;101275.66;;;23.82
78225;BMP280;67498;53.650;10.090;2023-07-13T11:38:02;101273.78;;;23.93
78225;BMP280;67498;53.650;10.090;2023-07-13T11:40:29;101290.28;;;23.97
78225;BMP280;67498;53.650;10.090;2023-07-13T11:43:01;101297.53;;;23.91
78225;BMP280;67498;53.650;10.090;2023-07-13T11:45:27;101294.78;;;23.69
78225;BMP280;67498;53.650;10.090;2023-07-13T11:47:53;101286.88;;;23.48
78225;BMP280;67498;53.650;10.090;2023-07-13T11:50:22;101280.81;;;23.42
78225;BMP280;67498;53.650;10.090;2023-07-13T11:52:49;101287.84;;;23.45
78225;BMP280;67498;53.650;10.090;2023-07-13T11:55:20;101284.78;;;23.64
78225;BMP280;67498;53.650;10.090;2023-07-13T11:57:50;101286.59;;;23.84
78225;BMP280;67498;53.650;10.090;2023-07-13T12:00:19;101287.13;;;23.93
78225;BMP280;67498;53.650;10.090;2023-07-13T12:02:49;101289.78;;;23.88
78225;BMP280;67498;53.650;10.090;2023-07-13T12:05:17;101295.75;;;23.71
78225;BMP280;67498;53.650;10.090;2023-07-13T12:07:43;101293.81;;;23.66
78225;BMP280;67498;53.650;10.090;2023-07-13T12:12:37;101302.50;;;23.67
78225;BMP280;67498;53.650;10.090;2023-07-13T12:15:07;101326.22;;;23.59
78225;BMP280;67498;53.650;10.090;2023-07-13T12:17:34;101339.06;;;23.24
78225;BMP280;67498;53.650;10.090;2023-07-13T12:20:21;101361.66;;;22.76
78225;BMP280;67498;53.650;10.090;2023-07-13T12:22:48;101384.06;;;22.29
78225;BMP280;67498;53.650;10.090;2023-07-13T12:25:15;101378.19;;;21.75
78225;BMP280;67498;53.650;10.090;2023-07-13T12:27:40;101393.59;;;21.26
78225;BMP280;67498;53.650;10.090;2023-07-13T12:30:24;101412.97;;;20.55
78225;BMP280;67498;53.650;10.090;2023-07-13T12:32:59;101417.91;;;19.87
78225;BMP280;67498;53.650;10.090;2023-07-13T12:35:26;101416.78;;;19.33
78225;BMP280;67498;53.650;10.090;2023-07-13T12:37:52;101417.84;;;18.86
78225;BMP280;67498;53.650;10.090;2023-07-13T12:40:20;101416.00;;;18.55
78225;BMP280;67498;53.650;10.090;2023-07-13T12:42:48;101419.44;;;18.34
78225;BMP280;67498;53.650;10.090;2023-07-13T12:45:26;101404.59;;;18.05
78225;BMP280;67498;53.650;10.090;2023-07-13T12:47:57;101421.97;;;17.93
78225;BMP280;67498;53.650;10.090;2023-07-13T12:50:34;101416.94;;;17.86
78225;BMP280;67498;53.650;10.090;2023-07-13T12:53:03;101418.72;;;17.89
78225;BMP280;67498;53.650;10.090;2023-07-13T12:55:29;101426.38;;;17.97
78225;BMP280;67498;53.650;10.090;2023-07-13T12:57:58;101432.78;;;18.08
78225;BMP280;67498;53.650;10.090;2023-07-13T13:00:28;101427.78;;;18.32
78225;BMP280;67498;53.650;10.090;2023-07-13T13:02:57;101427.63;;;18.58
78225;BMP280;67498;53.650;10.090;2023-07-13T13:05:25;101423.59;;;18.84
78225;BMP280;67498;53.650;10.090;2023-07-13T13:07:51;101422.59;;;19.00
78225;BMP280;67498;53.650;10.090;2023-07-13T13:10:16;101427.94;;;19.18
78225;BMP280;67498;53.650;10.090;2023-07-13T13:12:42;101422.38;;;19.26
78225;BMP280;67498;53.650;10.090;2023-07-13T13:15:08;101437.50;;;19.34
78225;BMP280;67498;53.650;10.090;2023-07-13T13:17:34;101444.88;;;19.39
78225;BMP280;67498;53.650;10.090;2023-07-13T13:19:59;101444.56;;;19.46
78225;BMP280;67498;53.650;10.090;2023-07-13T13:22:25;101446.06;;;19.47
78225;BMP280;67498;53.650;10.090;2023-07-13T13:24:50;101439.56;;;19.39
78225;BMP280;67498;53.650;10.090;2023-07-13T13:27:18;101435.03;;;19.40
78225;BMP280;67498;53.650;10.090;2023-07-13T13:29:45;101441.06;;;19.40
78225;BMP280;67498;53.650;10.090;2023-07-13T13:32:14;101426.19;;;19.34
78225;BMP280;67498;53.650;10.090;2023-07-13T13:34:40;101428.97;;;19.39
78225;BMP280;67498;53.650;10.090;2023-07-13T13:37:17;101427.94;;;19.37
78225;BMP280;67498;53.650;10.090;2023-07-13T13:39:44;101431.50;;;19.43
78225;BMP280;67498;53.650;10.090;2023-07-13T13:42:10;101430.16;;;19.38
78225;BMP280;67498;53.650;10.090;2023-07-13T13:44:35;101446.47;;;19.37
78225;BMP280;67498;53.650;10.090;2023-07-13T13:47:01;101447.81;;;19.32
78225;BMP280;67498;53.650;10.090;2023-07-13T13:49:27;101439.56;;;19.21
78225;BMP280;67498;53.650;10.090;2023-07-13T13:51:54;101444.84;;;19.12
78225;BMP280;67498;53.650;10.090;2023-07-13T13:54:20;101438.97;;;19.08
78225;BMP280;67498;53.650;10.090;2023-07-13T13:56:50;101454.09;;;19.07
78225;BMP280;67498;53.650;10.090;2023-07-13T13:59:16;101457.78;;;19.10
78225;BMP280;67498;53.650;10.090;2023-07-13T14:01:43;101456.75;;;19.07
78225;BMP280;67498;53.650;10.090;2023-07-13T14:04:15;101446.91;;;19.08
78225;BMP280;67498;53.650;10.090;2023-07-13T14:06:41;101449.53;;;19.08
78225;BMP280;67498;53.650;10.090;2023-07-13T14:09:11;101439.69;;;19.08
78225;BMP280;67498;53.650;10.090;2023-07-13T14:11:36;101424.84;;;19.02
78225;BMP280;67498;53.650;10.090;2023-07-13T14:14:02;101441.00;;;19.04
78225;BMP280;67498;53.650;10.090;2023-07-13T14:16:30;101431.47;;;19.15
78225;BMP280;67498;53.650;10.090;2023-07-13T14:18:59;101436.78;;;19.25
78225;BMP280;67498;53.650;10.090;2023-07-13T14:21:26;101436.19;;;19.39
78225;BMP280;67498;53.650;10.090;2023-07-13T14:23:52;101441.94;;;19.46
78225;BMP280;67498;53.650;10.090;2023-07-13T14:26:20;101446.63;;;19.52
78225;BMP280;67498;53.650;10.090;2023-07-13T14:28:50;101445.75;;;19.45
78225;BMP280;67498;53.650;10.090;2023-07-13T14:31:17;101436.94;;;19.39